createdAt,value
2022-10-25T00:01:47.894Z,13.10
2022-10-25T00:04:16.660Z,13.00
2022-10-25T00:06:45.327Z,13.00
2022-10-25T00:09:12.360Z,12.90
2022-10-25T00:11:40.329Z,12.80
2022-10-25T00:14:08.291Z,12.80
2022-10-25T00:16:38.217Z,12.70
2022-10-25T00:19:06.081Z,12.70
2022-10-25T00:21:33.557Z,12.50
2022-10-25T02:03:55.908Z,13.00
2022-10-25T02:06:40.114Z,13.00
2022-10-25T02:09:14.004Z,13.00
2022-10-25T02:11:41.084Z,13.00
2022-10-25T02:14:38.037Z,13.00
2022-10-25T02:17:13.272Z,12.90
2022-10-25T02:19:48.216Z,12.90
2022-10-25T02:22:17.722Z,12.90
2022-10-25T02:24:47.127Z,13.00
2022-10-25T02:27:15.212Z,12.90
2022-10-25T02:29:44.356Z,13.00
2022-10-25T02:32:11.468Z,12.90
2022-10-25T02:34:40.003Z,13.00
2022-10-25T02:37:07.204Z,12.90
2022-10-25T02:39:34.794Z,13.00
2022-10-25T02:42:04.742Z,13.00
2022-10-25T02:44:32.015Z,13.00
2022-10-25T02:46:59.166Z,13.00
2022-10-25T02:49:26.514Z,12.90
2022-10-25T02:51:53.974Z,13.00
2022-10-25T02:54:20.988Z,12.90
2022-10-25T02:56:52.658Z,12.90
2022-10-25T02:59:21.336Z,12.90
2022-10-25T03:01:48.980Z,12.90
2022-10-25T03:04:16.660Z,13.00
2022-10-25T03:06:43.624Z,12.90
2022-10-25T03:09:10.486Z,13.00
2022-10-25T03:11:37.343Z,13.00
2022-10-25T03:14:05.613Z,12.90
2022-10-25T03:16:32.546Z,12.90
2022-10-25T03:18:59.993Z,12.90
2022-10-25T03:21:27.253Z,12.90
2022-10-25T03:23:54.393Z,12.90
2022-10-25T03:26:21.453Z,12.90
2022-10-25T03:28:48.622Z,12.90
2022-10-25T03:31:17.535Z,12.90
2022-10-25T03:33:44.400Z,12.80
2022-10-25T03:36:11.452Z,12.70
2022-10-25T03:38:38.654Z,12.70
2022-10-25T03:41:06.189Z,12.80
2022-10-25T03:43:33.250Z,12.80
2022-10-25T03:46:00.126Z,12.80
2022-10-25T03:48:27.564Z,12.70
2022-10-25T03:51:01.264Z,12.70
2022-10-25T03:53:28.212Z,12.60
2022-10-25T03:55:56.127Z,12.60
2022-10-25T03:58:23.016Z,12.60
2022-10-25T04:00:50.127Z,12.60
2022-10-25T04:03:17.168Z,12.50
2022-10-25T04:05:43.931Z,12.50
2022-10-25T04:08:10.760Z,12.40
2022-10-25T04:10:37.537Z,12.40
2022-10-25T04:13:04.491Z,12.30
2022-10-25T04:15:35.667Z,12.20
2022-10-25T04:18:02.627Z,12.20
2022-10-25T04:20:29.417Z,12.10
2022-10-25T04:22:57.065Z,12.00
2022-10-25T04:25:33.130Z,11.90
2022-10-25T04:28:02.683Z,11.90
2022-10-25T04:30:29.401Z,11.80
2022-10-25T04:32:58.588Z,11.80
2022-10-25T04:35:25.472Z,11.70
2022-10-25T04:37:52.891Z,11.70
2022-10-25T04:40:24.922Z,11.70
2022-10-25T04:42:52.024Z,11.70
2022-10-25T04:45:19.002Z,11.70
2022-10-25T04:47:45.953Z,11.60
2022-10-25T04:50:13.037Z,11.50
2022-10-25T04:52:40.000Z,11.50
2022-10-25T04:55:07.378Z,11.50
2022-10-25T04:57:34.424Z,11.40
2022-10-25T05:00:01.246Z,11.40
2022-10-25T05:02:28.125Z,11.30
2022-10-25T05:04:55.056Z,11.30
2022-10-25T05:07:22.421Z,11.30
2022-10-25T05:09:49.313Z,11.20
2022-10-25T05:12:16.442Z,11.20
2022-10-25T05:14:47.380Z,11.10
2022-10-25T05:17:17.740Z,11.10
2022-10-25T05:19:44.734Z,11.10
2022-10-25T05:22:17.453Z,11.10
2022-10-25T05:24:44.294Z,11.20
2022-10-25T05:27:11.345Z,11.20
2022-10-25T05:29:38.231Z,11.30
2022-10-25T05:32:05.241Z,11.40
2022-10-25T05:34:32.100Z,11.50
2022-10-25T05:36:59.270Z,11.70
2022-10-25T05:39:26.182Z,11.80
2022-10-25T05:41:53.284Z,11.90
2022-10-25T05:44:20.247Z,12.00
2022-10-25T05:46:47.105Z,12.10
2022-10-25T05:49:14.174Z,12.20
2022-10-25T05:51:41.131Z,12.30
2022-10-25T05:54:11.444Z,12.30
2022-10-25T05:56:39.082Z,12.40
2022-10-25T05:59:11.651Z,12.50
2022-10-25T06:01:41.751Z,12.50
2022-10-25T06:04:13.513Z,12.50
2022-10-25T06:06:41.569Z,12.60
2022-10-25T06:09:09.163Z,12.70
2022-10-25T06:11:36.894Z,12.70
2022-10-25T06:14:07.740Z,12.70
2022-10-25T06:16:36.973Z,12.80
2022-10-25T06:19:03.923Z,12.90
2022-10-25T06:21:31.004Z,12.90
2022-10-25T06:23:59.391Z,12.90
2022-10-25T06:26:29.121Z,13.00
2022-10-25T06:28:58.544Z,13.10
2022-10-25T06:31:26.151Z,13.20
2022-10-25T06:33:53.044Z,13.20
2022-10-25T06:36:27.752Z,13.30
2022-10-25T06:38:54.563Z,13.30
2022-10-25T06:41:28.999Z,13.30
2022-10-25T06:43:55.863Z,13.40
2022-10-25T06:46:31.874Z,13.40
2022-10-25T06:49:01.236Z,13.40
2022-10-25T06:51:29.227Z,13.50
2022-10-25T06:53:57.612Z,13.50
2022-10-25T06:56:25.108Z,13.50
2022-10-25T06:58:52.577Z,13.50
2022-10-25T07:01:21.155Z,13.50
2022-10-25T07:03:54.381Z,13.50
2022-10-25T07:06:37.627Z,13.60
2022-10-25T07:09:05.895Z,13.60
2022-10-25T07:11:33.555Z,13.70
2022-10-25T07:14:01.825Z,13.80
2022-10-25T07:16:35.304Z,13.80
2022-10-25T07:19:04.305Z,13.90
2022-10-25T07:21:43.009Z,14.00
2022-10-25T07:24:11.309Z,14.00
2022-10-25T07:26:44.240Z,14.10
2022-10-25T07:29:11.209Z,14.20
2022-10-25T07:31:44.195Z,14.30
2022-10-25T07:34:16.623Z,14.30
2022-10-25T07:36:45.156Z,14.30
2022-10-25T07:39:12.457Z,14.30
2022-10-25T07:41:39.557Z,14.30
2022-10-25T07:44:07.465Z,14.40
2022-10-25T07:46:37.548Z,14.40
2022-10-25T07:49:08.008Z,14.40
2022-10-25T07:51:34.853Z,14.40
2022-10-25T07:54:01.748Z,14.40
2022-10-25T07:56:30.397Z,14.50
2022-10-25T07:58:59.679Z,14.40
2022-10-25T08:01:28.612Z,14.50
2022-10-25T08:20:06.885Z,14.70
2022-10-25T08:22:33.862Z,15.30
2022-10-25T08:25:01.096Z,15.70
2022-10-25T08:27:28.671Z,15.80
2022-10-25T08:30:01.643Z,15.90
2022-10-25T08:32:32.304Z,16.20
2022-10-25T08:34:59.172Z,16.30
2022-10-25T08:37:27.098Z,16.70
2022-10-25T08:39:55.710Z,16.80
2022-10-25T08:42:51.071Z,17.00
2022-10-25T08:45:49.207Z,17.00
2022-10-25T08:48:27.301Z,16.90
2022-10-25T08:51:12.738Z,16.90
2022-10-25T08:53:47.908Z,16.80
2022-10-25T08:56:20.219Z,16.90
2022-10-25T08:58:56.935Z,16.70
2022-10-25T09:01:37.101Z,16.70
2022-10-25T09:04:04.275Z,16.70
2022-10-25T09:07:13.379Z,17.00
2022-10-25T09:10:21.487Z,17.10
2022-10-25T09:13:05.748Z,17.00
2022-10-25T09:15:50.865Z,17.00
2022-10-25T09:18:19.585Z,17.00
2022-10-25T09:20:50.878Z,17.20
2022-10-25T09:23:32.453Z,17.50
2022-10-25T09:26:03.201Z,17.50
2022-10-25T09:28:45.133Z,17.70
2022-10-25T09:31:16.778Z,18.00
2022-10-25T09:33:46.878Z,17.70
2022-10-25T09:36:14.983Z,17.50
2022-10-25T09:38:51.023Z,17.50
2022-10-25T09:41:28.787Z,17.20
2022-10-25T09:44:21.866Z,17.50
2022-10-25T09:46:56.908Z,17.40
2022-10-25T09:50:02.884Z,17.50
2022-10-25T09:53:03.748Z,17.50
2022-10-25T09:55:42.913Z,17.30
2022-10-25T09:58:18.297Z,17.10
2022-10-25T10:00:45.573Z,17.10
2022-10-25T10:03:13.866Z,17.30
2022-10-25T10:05:56.762Z,17.50
2022-10-25T10:08:28.575Z,17.30
2022-10-25T10:11:01.472Z,17.30
2022-10-25T10:13:43.055Z,17.30
2022-10-25T10:16:27.323Z,17.10
2022-10-25T10:19:21.526Z,17.10
2022-10-25T10:22:00.699Z,17.30
2022-10-25T10:24:40.858Z,17.40
2022-10-25T10:27:33.265Z,17.70
2022-10-25T10:30:08.195Z,17.60
2022-10-25T10:35:27.485Z,18.00
2022-10-25T10:38:13.667Z,18.30
2022-10-25T10:40:40.427Z,18.00
2022-10-25T10:43:48.434Z,18.20
2022-10-25T10:46:24.758Z,18.50
2022-10-25T10:48:56.246Z,19.00
2022-10-25T10:51:46.444Z,19.00
2022-10-25T10:54:27.014Z,18.80
2022-10-25T10:56:56.148Z,19.10
2022-10-25T10:59:34.339Z,19.40
2022-10-25T11:02:21.275Z,19.40
2022-10-25T11:04:50.042Z,19.50
2022-10-25T11:07:31.561Z,19.50
2022-10-25T11:10:20.281Z,19.60
2022-10-25T11:13:14.664Z,19.60
2022-10-25T11:16:07.983Z,19.90
2022-10-25T11:18:56.565Z,19.80
2022-10-25T11:21:54.598Z,19.80
2022-10-25T11:24:45.391Z,19.70
2022-10-25T11:27:17.838Z,19.90
2022-10-25T11:30:00.501Z,19.80
2022-10-25T11:35:32.340Z,19.60
2022-10-25T11:38:17.231Z,18.90
2022-10-25T11:40:55.450Z,18.60
2022-10-25T11:43:49.590Z,18.50
2022-10-25T11:46:16.272Z,18.50
2022-10-25T11:48:54.287Z,18.80
2022-10-25T11:51:21.130Z,19.40
2022-10-25T11:54:02.202Z,19.60
2022-10-25T11:56:57.314Z,20.00
2022-10-25T11:59:27.789Z,20.40
2022-10-25T12:02:19.952Z,21.00
2022-10-25T12:05:12.483Z,21.00
2022-10-25T12:07:48.164Z,20.60
2022-10-25T12:10:24.321Z,20.30
2022-10-25T12:12:56.859Z,19.90
2022-10-25T12:15:52.432Z,19.70
2022-10-25T12:18:43.506Z,19.80
2022-10-25T12:21:16.511Z,20.40
2022-10-25T12:23:49.905Z,21.00
2022-10-25T12:26:30.298Z,21.80
2022-10-25T12:29:00.451Z,21.10
2022-10-25T12:31:31.680Z,20.90
2022-10-25T12:34:25.331Z,20.70
2022-10-25T12:36:55.796Z,20.80
2022-10-25T12:39:41.068Z,20.90
2022-10-25T12:42:27.285Z,21.40
2022-10-25T12:44:54.032Z,22.00
2022-10-25T12:47:58.461Z,21.90
2022-10-25T12:50:53.982Z,22.10
2022-10-25T12:54:00.873Z,22.10
2022-10-25T12:56:46.854Z,22.30
2022-10-25T12:59:50.538Z,21.90
2022-10-25T13:02:47.877Z,21.40
2022-10-25T13:05:52.947Z,21.00
2022-10-25T13:08:23.614Z,21.00
2022-10-25T13:11:02.088Z,21.20
2022-10-25T13:13:34.581Z,21.30
2022-10-25T13:16:04.811Z,21.20
2022-10-25T13:18:34.812Z,20.50
2022-10-25T13:21:04.452Z,20.30
2022-10-25T13:23:43.970Z,20.70
2022-10-25T13:26:13.984Z,21.40
2022-10-25T13:29:00.587Z,21.90
2022-10-25T13:31:36.470Z,22.10
2022-10-25T13:34:12.607Z,22.30
2022-10-25T13:36:55.833Z,22.30
2022-10-25T13:39:31.492Z,22.10
2022-10-25T13:42:08.542Z,22.00
2022-10-25T13:44:39.433Z,22.30
2022-10-25T13:47:46.108Z,22.60
2022-10-25T13:50:27.068Z,22.90
2022-10-25T13:53:26.449Z,23.10
2022-10-25T13:56:16.236Z,23.00
2022-10-25T13:58:47.995Z,22.90
2022-10-25T14:01:18.554Z,22.80
2022-10-25T14:03:50.169Z,22.50
2022-10-25T14:06:43.253Z,22.90
2022-10-25T14:09:19.115Z,23.10
2022-10-25T14:11:52.591Z,23.10
2022-10-25T14:14:43.608Z,23.70
2022-10-25T14:17:29.610Z,23.60
2022-10-25T14:20:04.442Z,23.80
2022-10-25T14:22:40.508Z,23.30
2022-10-25T14:25:19.009Z,23.40
2022-10-25T14:27:46.263Z,23.70
2022-10-25T14:30:28.877Z,23.40
2022-10-25T14:33:03.975Z,23.10
2022-10-25T14:35:46.126Z,22.70
2022-10-25T14:38:22.781Z,22.80
2022-10-25T14:40:58.458Z,22.80
2022-10-25T14:43:34.077Z,21.90
2022-10-25T14:46:05.947Z,21.10
2022-10-25T14:48:33.925Z,20.80
2022-10-25T14:51:27.378Z,20.60
2022-10-25T14:54:20.316Z,20.40
2022-10-25T14:56:50.631Z,20.10
2022-10-25T14:59:26.429Z,19.80
2022-10-25T15:01:56.498Z,19.50
2022-10-25T15:04:29.950Z,19.50
2022-10-25T15:06:57.513Z,19.40
2022-10-25T15:12:11.642Z,19.40
2022-10-25T15:14:38.915Z,19.30
2022-10-25T15:17:16.024Z,19.50
2022-10-25T15:20:17.056Z,19.50
2022-10-25T15:22:47.927Z,19.80
2022-10-25T15:25:22.204Z,20.00
2022-10-25T15:27:51.303Z,20.00
2022-10-25T15:30:38.118Z,20.00
2022-10-25T15:33:08.453Z,19.90
2022-10-25T15:35:52.125Z,19.80
2022-10-25T15:38:19.600Z,19.50
2022-10-25T15:40:47.913Z,19.10
2022-10-25T15:43:15.268Z,18.90
2022-10-25T15:45:42.892Z,18.70
2022-10-25T15:48:18.996Z,18.50
2022-10-25T15:50:49.864Z,18.50
2022-10-25T15:53:16.876Z,18.20
2022-10-25T15:55:44.568Z,18.10
2022-10-25T15:58:11.704Z,18.10
2022-10-25T16:00:38.892Z,17.90
2022-10-25T16:03:08.450Z,17.80
2022-10-25T16:05:38.269Z,17.80
2022-10-25T16:08:05.461Z,17.60
2022-10-25T16:10:32.582Z,17.50
2022-10-25T16:13:04.117Z,17.40
2022-10-25T16:15:31.785Z,17.30
2022-10-25T16:17:59.060Z,17.10
2022-10-25T16:20:30.573Z,17.10
2022-10-25T16:22:58.052Z,17.00
2022-10-25T16:25:30.455Z,16.90
2022-10-25T16:28:00.555Z,16.80
2022-10-25T16:30:31.754Z,16.60
2022-10-25T16:32:58.577Z,16.50
2022-10-25T16:35:26.484Z,16.40
2022-10-25T16:37:54.061Z,16.30
2022-10-25T16:40:22.349Z,16.20
2022-10-25T16:42:50.055Z,16.10
2022-10-25T16:45:20.771Z,16.00
2022-10-25T16:47:47.780Z,15.90
2022-10-25T16:50:15.237Z,15.90
2022-10-25T16:52:42.523Z,15.70
2022-10-25T16:55:10.458Z,15.70
2022-10-25T16:57:37.805Z,15.70
2022-10-25T17:00:05.786Z,15.60
2022-10-25T17:02:32.978Z,15.60
2022-10-25T17:05:00.595Z,15.50
2022-10-25T17:07:27.569Z,15.50
2022-10-25T17:09:54.702Z,15.50
2022-10-25T17:12:21.657Z,15.50
2022-10-25T17:14:48.669Z,15.40
2022-10-25T17:17:15.904Z,15.30
2022-10-25T17:19:42.887Z,15.30
2022-10-25T17:22:10.350Z,15.20
2022-10-25T17:24:37.656Z,15.20
2022-10-25T17:27:07.150Z,15.10
2022-10-25T17:29:34.048Z,15.10
2022-10-25T17:32:01.203Z,15.00
2022-10-25T17:34:28.245Z,15.00
2022-10-25T17:36:55.208Z,15.00
2022-10-25T17:39:22.122Z,15.00
2022-10-25T17:41:49.090Z,14.90
2022-10-25T17:44:15.929Z,14.90
2022-10-25T17:49:10.858Z,14.70
2022-10-25T17:51:37.842Z,14.70
2022-10-25T17:54:04.657Z,14.70
2022-10-25T17:59:07.014Z,14.50
2022-10-25T18:01:35.461Z,14.50
2022-10-25T18:04:02.753Z,14.30
2022-10-25T18:06:30.957Z,14.40
2022-10-25T18:08:59.123Z,14.40
2022-10-25T18:11:28.432Z,14.30
2022-10-25T18:13:58.006Z,14.30
2022-10-25T18:16:30.497Z,14.20
2022-10-25T18:18:59.728Z,14.20
2022-10-25T18:21:26.712Z,14.20
2022-10-25T18:23:58.907Z,14.20
2022-10-25T18:26:26.188Z,14.20
2022-10-25T18:28:53.645Z,14.10
2022-10-25T18:31:21.138Z,14.00
2022-10-25T18:33:48.374Z,14.10
2022-10-25T18:36:19.199Z,14.10
2022-10-25T18:38:46.933Z,14.00
2022-10-25T18:41:16.580Z,14.00
2022-10-25T18:43:44.208Z,13.90
2022-10-25T18:46:11.037Z,13.90
2022-10-25T18:48:38.449Z,13.80
2022-10-25T18:51:12.127Z,13.80
2022-10-25T18:53:39.654Z,13.70
2022-10-25T18:56:11.856Z,13.70
2022-10-25T18:58:39.628Z,13.70
2022-10-25T19:01:08.742Z,13.80
2022-10-25T19:03:36.783Z,13.70
2022-10-25T19:06:04.631Z,13.60
2022-10-25T19:08:31.921Z,13.50
2022-10-25T19:11:03.931Z,13.50
2022-10-25T19:13:30.997Z,13.40
2022-10-25T19:15:59.067Z,13.40
2022-10-25T19:18:27.712Z,13.40
2022-10-25T19:21:00.228Z,13.40
2022-10-25T19:23:28.186Z,13.40
2022-10-25T19:25:55.798Z,13.30
2022-10-25T19:28:24.076Z,13.40
2022-10-25T19:30:51.376Z,13.30
2022-10-25T19:33:18.402Z,13.20
2022-10-25T19:35:45.637Z,13.20
2022-10-25T19:38:13.386Z,13.20
2022-10-25T19:40:44.643Z,13.20
2022-10-25T19:43:15.881Z,13.10
2022-10-25T19:45:46.265Z,13.00
2022-10-25T19:48:14.516Z,13.00
2022-10-25T19:50:41.728Z,13.00
2022-10-25T19:53:08.906Z,13.00
2022-10-25T19:55:36.708Z,13.00
2022-10-25T19:58:06.055Z,12.90
2022-10-25T20:00:34.010Z,12.90
2022-10-25T20:03:01.785Z,12.90
2022-10-25T20:05:29.926Z,12.90
2022-10-25T20:07:57.032Z,12.80
2022-10-25T20:10:24.235Z,12.80
2022-10-25T20:12:51.253Z,12.80
2022-10-25T20:15:18.077Z,12.80
2022-10-25T20:17:45.245Z,12.80
2022-10-25T20:20:12.562Z,12.80
2022-10-25T20:22:39.340Z,12.70
2022-10-25T20:25:07.088Z,12.70
2022-10-25T20:27:34.200Z,12.70
2022-10-25T20:30:01.339Z,12.70
2022-10-25T20:32:28.215Z,12.70
2022-10-25T20:34:55.009Z,12.70
2022-10-25T20:37:22.325Z,12.70
2022-10-25T20:39:49.449Z,12.70
2022-10-25T20:42:17.922Z,12.80
2022-10-25T20:44:45.021Z,12.60
2022-10-25T20:47:11.924Z,12.60
2022-10-25T20:49:38.853Z,12.50
2022-10-25T20:52:05.904Z,12.60
2022-10-25T20:54:33.393Z,12.50
2022-10-25T20:57:00.418Z,12.50
2022-10-25T20:59:27.443Z,12.40
2022-10-25T21:01:54.350Z,12.50
2022-10-25T21:04:26.065Z,12.40
2022-10-25T21:07:08.347Z,12.40
2022-10-25T21:09:35.559Z,12.40
2022-10-25T21:12:02.597Z,12.40
2022-10-25T21:14:29.429Z,12.40
2022-10-25T21:16:56.223Z,12.40
2022-10-25T21:19:23.239Z,12.40
2022-10-25T21:21:50.034Z,12.40
2022-10-25T21:24:17.111Z,12.40
2022-10-25T21:26:44.010Z,12.40
2022-10-25T21:29:10.829Z,12.40
2022-10-25T21:31:37.890Z,12.40
2022-10-25T21:34:05.119Z,12.40
2022-10-25T21:36:31.996Z,12.40
2022-10-25T21:38:59.160Z,12.40
2022-10-25T21:41:29.984Z,12.40
2022-10-25T21:43:57.877Z,12.40
2022-10-25T21:46:26.830Z,12.40
2022-10-25T21:48:54.336Z,12.50
2022-10-25T21:51:24.381Z,12.50
2022-10-25T21:56:23.966Z,12.50
2022-10-25T21:58:52.003Z,12.50
2022-10-25T22:01:22.111Z,12.40
2022-10-25T22:03:49.256Z,12.40
2022-10-25T22:06:18.092Z,12.30
2022-10-25T22:08:45.378Z,12.40
2022-10-25T22:11:15.471Z,12.40
2022-10-25T22:13:43.227Z,12.40
2022-10-25T22:16:16.405Z,12.40
2022-10-25T22:18:47.774Z,12.40
2022-10-25T22:21:15.110Z,12.40
2022-10-25T22:23:42.094Z,12.40
2022-10-25T22:26:11.508Z,12.40
2022-10-25T22:28:40.932Z,12.40
2022-10-25T22:31:18.029Z,12.40
2022-10-25T22:33:46.936Z,12.40
2022-10-25T22:36:19.136Z,12.40
2022-10-25T22:38:47.382Z,12.40
2022-10-25T22:41:17.437Z,12.40
2022-10-25T22:43:45.511Z,12.50
2022-10-25T22:46:15.713Z,12.50
2022-10-25T22:48:44.592Z,12.50
2022-10-25T22:51:12.417Z,12.50
2022-10-25T22:53:40.243Z,12.60
2022-10-25T22:56:13.654Z,12.60
2022-10-25T22:58:41.776Z,12.50
2022-10-25T23:01:13.084Z,12.50
2022-10-25T23:03:42.232Z,12.50
2022-10-25T23:06:20.273Z,12.60
2022-10-25T23:08:47.848Z,12.60
2022-10-25T23:11:17.661Z,12.60
2022-10-25T23:13:45.179Z,12.60
2022-10-25T23:16:13.685Z,12.70
2022-10-25T23:18:41.008Z,12.70
2022-10-25T23:21:13.514Z,12.70
2022-10-25T23:23:40.983Z,12.70
2022-10-25T23:26:13.158Z,12.60
2022-10-25T23:28:40.396Z,12.60
2022-10-25T23:31:10.574Z,12.60
2022-10-25T23:33:38.505Z,12.60
2022-10-25T23:36:11.339Z,12.50
2022-10-25T23:38:38.835Z,12.50
2022-10-25T23:41:06.939Z,12.40
2022-10-25T23:43:34.556Z,12.50
2022-10-25T23:46:01.904Z,12.50
2022-10-25T23:48:29.185Z,12.50
2022-10-25T23:53:34.140Z,12.60
2022-10-25T23:56:01.595Z,12.50
2022-10-25T23:58:28.609Z,12.50
